sensor_id;sensor_type;location;lat;lon;timestamp;P1;durP1;ratioP1;P2;durP2;ratioP2
31848;SDS011;18414;59.352;18.152;2023-06-04T00:00:38;3.20;;;1.60;;
31848;SDS011;18414;59.352;18.152;2023-06-04T00:03:03;2.07;;;1.80;;
31848;SDS011;18414;59.352;18.152;2023-06-04T00:05:28;2.00;;;1.57;;
31848;SDS011;18414;59.352;18.152;2023-06-04T00:07:54;2.80;;;1.80;;
31848;SDS011;18414;59.352;18.152;2023-06-04T00:10:19;1.83;;;1.52;;
31848;SDS011;18414;59.352;18.152;2023-06-04T00:12:44;2.37;;;1.70;;
31848;SDS011;18414;59.352;18.152;2023-06-04T00:15:10;2.20;;;1.87;;
31848;SDS011;18414;59.352;18.152;2023-06-04T00:17:35;2.63;;;1.80;;
31848;SDS011;18414;59.352;18.152;2023-06-04T00:20:01;2.53;;;2.03;;
31848;SDS011;18414;59.352;18.152;2023-06-04T00:22:26;2.83;;;2.10;;
31848;SDS011;18414;59.352;18.152;2023-06-04T00:24:52;2.33;;;1.90;;
31848;SDS011;18414;59.352;18.152;2023-06-04T00:27:17;2.70;;;1.90;;
31848;SDS011;18414;59.352;18.152;2023-06-04T00:29:43;2.83;;;2.00;;
31848;SDS011;18414;59.352;18.152;2023-06-04T00:32:08;2.67;;;2.03;;
31848;SDS011;18414;59.352;18.152;2023-06-04T00:34:33;1.93;;;1.70;;
31848;SDS011;18414;59.352;18.152;2023-06-04T00:36:59;2.60;;;2.03;;
31848;SDS011;18414;59.352;18.152;2023-06-04T00:39:26;2.60;;;2.03;;
31848;SDS011;18414;59.352;18.152;2023-06-04T00:41:51;2.20;;;1.97;;
31848;SDS011;18414;59.352;18.152;2023-06-04T00:44:17;5.20;;;1.80;;
31848;SDS011;18414;59.352;18.152;2023-06-04T00:46:42;2.83;;;2.20;;
31848;SDS011;18414;59.352;18.152;2023-06-04T00:49:10;2.50;;;2.00;;
31848;SDS011;18414;59.352;18.152;2023-06-04T00:51:37;2.83;;;2.20;;
31848;SDS011;18414;59.352;18.152;2023-06-04T00:54:03;3.10;;;2.20;;
31848;SDS011;18414;59.352;18.152;2023-06-04T00:56:33;3.53;;;2.07;;
31848;SDS011;18414;59.352;18.152;2023-06-04T00:58:59;3.13;;;2.03;;
31848;SDS011;18414;59.352;18.152;2023-06-04T01:01:34;3.43;;;2.30;;
31848;SDS011;18414;59.352;18.152;2023-06-04T01:04:05;3.03;;;2.20;;
31848;SDS011;18414;59.352;18.152;2023-06-04T01:06:36;3.60;;;2.20;;
31848;SDS011;18414;59.352;18.152;2023-06-04T01:09:03;2.63;;;2.17;;
31848;SDS011;18414;59.352;18.152;2023-06-04T01:11:30;3.83;;;2.10;;
31848;SDS011;18414;59.352;18.152;2023-06-04T01:13:59;2.80;;;2.33;;
31848;SDS011;18414;59.352;18.152;2023-06-04T01:16:25;2.30;;;2.10;;
31848;SDS011;18414;59.352;18.152;2023-06-04T01:18:53;3.80;;;2.43;;
31848;SDS011;18414;59.352;18.152;2023-06-04T01:21:23;5.50;;;2.20;;
31848;SDS011;18414;59.352;18.152;2023-06-04T01:23:51;2.47;;;2.00;;
31848;SDS011;18414;59.352;18.152;2023-06-04T01:26:24;2.90;;;1.70;;
31848;SDS011;18414;59.352;18.152;2023-06-04T01:28:51;1.87;;;1.57;;
31848;SDS011;18414;59.352;18.152;2023-06-04T01:31:16;3.47;;;1.60;;
31848;SDS011;18414;59.352;18.152;2023-06-04T01:33:41;2.60;;;1.80;;
31848;SDS011;18414;59.352;18.152;2023-06-04T01:36:07;1.97;;;1.77;;
31848;SDS011;18414;59.352;18.152;2023-06-04T01:38:35;4.13;;;1.70;;
31848;SDS011;18414;59.352;18.152;2023-06-04T01:41:00;2.07;;;1.60;;
31848;SDS011;18414;59.352;18.152;2023-06-04T01:43:27;1.67;;;1.43;;
31848;SDS011;18414;59.352;18.152;2023-06-04T01:45:53;2.57;;;1.80;;
31848;SDS011;18414;59.352;18.152;2023-06-04T01:48:19;2.27;;;1.50;;
31848;SDS011;18414;59.352;18.152;2023-06-04T01:50:45;2.77;;;1.60;;
31848;SDS011;18414;59.352;18.152;2023-06-04T01:53:10;2.30;;;1.60;;
31848;SDS011;18414;59.352;18.152;2023-06-04T01:55:35;2.57;;;1.70;;
31848;SDS011;18414;59.352;18.152;2023-06-04T01:58:02;1.80;;;1.40;;
31848;SDS011;18414;59.352;18.152;2023-06-04T02:00:28;2.83;;;1.40;;
31848;SDS011;18414;59.352;18.152;2023-06-04T02:02:53;1.50;;;1.40;;
31848;SDS011;18414;59.352;18.152;2023-06-04T02:05:21;2.00;;;1.80;;
31848;SDS011;18414;59.352;18.152;2023-06-04T02:07:46;1.70;;;1.50;;
31848;SDS011;18414;59.352;18.152;2023-06-04T02:10:13;3.10;;;1.80;;
31848;SDS011;18414;59.352;18.152;2023-06-04T02:12:40;2.43;;;1.60;;
31848;SDS011;18414;59.352;18.152;2023-06-04T02:15:07;2.40;;;1.90;;
31848;SDS011;18414;59.352;18.152;2023-06-04T02:17:35;3.37;;;2.00;;
31848;SDS011;18414;59.352;18.152;2023-06-04T02:20:05;1.80;;;1.70;;
31848;SDS011;18414;59.352;18.152;2023-06-04T02:22:31;2.13;;;1.90;;
31848;SDS011;18414;59.352;18.152;2023-06-04T02:24:56;2.10;;;1.90;;
31848;SDS011;18414;59.352;18.152;2023-06-04T02:27:21;3.13;;;2.23;;
31848;SDS011;18414;59.352;18.152;2023-06-04T02:29:47;2.20;;;2.00;;
31848;SDS011;18414;59.352;18.152;2023-06-04T02:32:12;2.40;;;2.03;;
31848;SDS011;18414;59.352;18.152;2023-06-04T02:34:38;2.67;;;2.10;;
31848;SDS011;18414;59.352;18.152;2023-06-04T02:37:03;2.07;;;1.87;;
31848;SDS011;18414;59.352;18.152;2023-06-04T02:39:29;2.40;;;1.67;;
31848;SDS011;18414;59.352;18.152;2023-06-04T02:41:55;1.47;;;1.37;;
31848;SDS011;18414;59.352;18.152;2023-06-04T02:44:20;1.60;;;1.47;;
31848;SDS011;18414;59.352;18.152;2023-06-04T02:46:46;1.63;;;1.53;;
31848;SDS011;18414;59.352;18.152;2023-06-04T02:49:11;2.17;;;1.67;;
31848;SDS011;18414;59.352;18.152;2023-06-04T02:51:41;1.60;;;1.50;;
31848;SDS011;18414;59.352;18.152;2023-06-04T02:54:07;1.87;;;1.30;;
31848;SDS011;18414;59.352;18.152;2023-06-04T02:56:33;1.10;;;1.00;;
31848;SDS011;18414;59.352;18.152;2023-06-04T02:58:58;1.20;;;1.07;;
31848;SDS011;18414;59.352;18.152;2023-06-04T03:01:24;1.23;;;0.97;;
31848;SDS011;18414;59.352;18.152;2023-06-04T03:03:51;1.37;;;0.83;;
31848;SDS011;18414;59.352;18.152;2023-06-04T03:06:17;0.90;;;0.90;;
31848;SDS011;18414;59.352;18.152;2023-06-04T03:08:45;3.23;;;1.00;;
31848;SDS011;18414;59.352;18.152;2023-06-04T03:11:10;0.70;;;0.70;;
31848;SDS011;18414;59.352;18.152;2023-06-04T03:13:36;0.80;;;0.80;;
31848;SDS011;18414;59.352;18.152;2023-06-04T03:16:01;1.17;;;0.87;;
31848;SDS011;18414;59.352;18.152;2023-06-04T03:18:30;2.37;;;1.10;;
31848;SDS011;18414;59.352;18.152;2023-06-04T03:20:55;0.90;;;0.80;;
31848;SDS011;18414;59.352;18.152;2023-06-04T03:23:21;0.80;;;0.80;;
31848;SDS011;18414;59.352;18.152;2023-06-04T03:25:47;1.90;;;1.40;;
31848;SDS011;18414;59.352;18.152;2023-06-04T03:28:12;1.40;;;0.90;;
31848;SDS011;18414;59.352;18.152;2023-06-04T03:30:39;2.20;;;0.80;;
31848;SDS011;18414;59.352;18.152;2023-06-04T03:33:05;1.17;;;0.70;;
31848;SDS011;18414;59.352;18.152;2023-06-04T03:35:31;1.17;;;0.80;;
31848;SDS011;18414;59.352;18.152;2023-06-04T03:37:56;1.43;;;0.97;;
31848;SDS011;18414;59.352;18.152;2023-06-04T03:40:21;1.00;;;0.90;;
31848;SDS011;18414;59.352;18.152;2023-06-04T03:42:46;2.53;;;0.80;;
31848;SDS011;18414;59.352;18.152;2023-06-04T03:45:12;1.17;;;0.80;;
31848;SDS011;18414;59.352;18.152;2023-06-04T03:47:38;1.27;;;0.90;;
31848;SDS011;18414;59.352;18.152;2023-06-04T03:50:03;0.90;;;0.70;;
31848;SDS011;18414;59.352;18.152;2023-06-04T03:52:29;1.03;;;0.70;;
31848;SDS011;18414;59.352;18.152;2023-06-04T03:54:55;1.37;;;0.70;;
31848;SDS011;18414;59.352;18.152;2023-06-04T03:57:21;0.97;;;0.87;;
31848;SDS011;18414;59.352;18.152;2023-06-04T03:59:46;1.37;;;0.80;;
31848;SDS011;18414;59.352;18.152;2023-06-04T04:02:11;1.53;;;0.80;;
31848;SDS011;18414;59.352;18.152;2023-06-04T04:04:37;1.83;;;0.70;;
31848;SDS011;18414;59.352;18.152;2023-06-04T04:07:02;1.33;;;0.80;;
31848;SDS011;18414;59.352;18.152;2023-06-04T04:09:27;0.60;;;0.60;;
31848;SDS011;18414;59.352;18.152;2023-06-04T04:11:53;0.97;;;0.70;;
31848;SDS011;18414;59.352;18.152;2023-06-04T04:14:18;1.00;;;0.90;;
31848;SDS011;18414;59.352;18.152;2023-06-04T04:16:43;0.70;;;0.60;;
31848;SDS011;18414;59.352;18.152;2023-06-04T04:19:09;0.70;;;0.70;;
31848;SDS011;18414;59.352;18.152;2023-06-04T04:21:35;1.03;;;0.80;;
31848;SDS011;18414;59.352;18.152;2023-06-04T04:24:01;1.70;;;0.73;;
31848;SDS011;18414;59.352;18.152;2023-06-04T04:26:27;0.80;;;0.70;;
31848;SDS011;18414;59.352;18.152;2023-06-04T04:28:53;1.10;;;0.73;;
31848;SDS011;18414;59.352;18.152;2023-06-04T04:31:23;0.90;;;0.70;;
31848;SDS011;18414;59.352;18.152;2023-06-04T04:33:49;0.63;;;0.63;;
31848;SDS011;18414;59.352;18.152;2023-06-04T04:36:16;2.00;;;0.77;;
31848;SDS011;18414;59.352;18.152;2023-06-04T04:38:43;1.27;;;0.80;;
31848;SDS011;18414;59.352;18.152;2023-06-04T04:41:10;3.37;;;0.77;;
31848;SDS011;18414;59.352;18.152;2023-06-04T04:43:37;1.30;;;0.83;;
31848;SDS011;18414;59.352;18.152;2023-06-04T04:46:04;0.60;;;0.60;;
31848;SDS011;18414;59.352;18.152;2023-06-04T04:48:32;0.97;;;0.70;;
31848;SDS011;18414;59.352;18.152;2023-06-04T04:50:58;0.80;;;0.80;;
31848;SDS011;18414;59.352;18.152;2023-06-04T04:53:23;0.93;;;0.80;;
31848;SDS011;18414;59.352;18.152;2023-06-04T04:55:49;2.00;;;0.70;;
31848;SDS011;18414;59.352;18.152;2023-06-04T04:58:15;1.70;;;0.83;;
31848;SDS011;18414;59.352;18.152;2023-06-04T05:00:40;0.93;;;0.60;;
31848;SDS011;18414;59.352;18.152;2023-06-04T05:03:06;2.67;;;0.80;;
31848;SDS011;18414;59.352;18.152;2023-06-04T05:05:32;0.93;;;0.50;;
31848;SDS011;18414;59.352;18.152;2023-06-04T05:07:58;0.73;;;0.60;;
31848;SDS011;18414;59.352;18.152;2023-06-04T05:10:23;2.90;;;0.60;;
31848;SDS011;18414;59.352;18.152;2023-06-04T05:12:57;1.03;;;0.80;;
31848;SDS011;18414;59.352;18.152;2023-06-04T05:15:23;0.80;;;0.60;;
31848;SDS011;18414;59.352;18.152;2023-06-04T05:17:49;0.70;;;0.70;;
31848;SDS011;18414;59.352;18.152;2023-06-04T05:20:17;0.50;;;0.50;;
31848;SDS011;18414;59.352;18.152;2023-06-04T05:22:44;1.73;;;0.60;;
31848;SDS011;18414;59.352;18.152;2023-06-04T05:25:10;0.50;;;0.50;;
31848;SDS011;18414;59.352;18.152;2023-06-04T05:27:36;0.70;;;0.60;;
31848;SDS011;18414;59.352;18.152;2023-06-04T05:30:02;0.60;;;0.60;;
31848;SDS011;18414;59.352;18.152;2023-06-04T05:32:29;0.60;;;0.60;;
31848;SDS011;18414;59.352;18.152;2023-06-04T05:34:56;0.60;;;0.60;;
31848;SDS011;18414;59.352;18.152;2023-06-04T05:37:22;1.13;;;0.70;;
31848;SDS011;18414;59.352;18.152;2023-06-04T05:39:49;0.60;;;0.60;;
31848;SDS011;18414;59.352;18.152;2023-06-04T05:42:14;0.60;;;0.50;;
31848;SDS011;18414;59.352;18.152;2023-06-04T05:44:40;0.97;;;0.67;;
31848;SDS011;18414;59.352;18.152;2023-06-04T05:47:05;0.60;;;0.60;;
31848;SDS011;18414;59.352;18.152;2023-06-04T05:49:32;0.83;;;0.53;;
31848;SDS011;18414;59.352;18.152;2023-06-04T05:51:59;0.57;;;0.57;;
31848;SDS011;18414;59.352;18.152;2023-06-04T05:54:24;0.93;;;0.60;;
31848;SDS011;18414;59.352;18.152;2023-06-04T05:56:49;0.50;;;0.50;;
31848;SDS011;18414;59.352;18.152;2023-06-04T05:59:15;1.17;;;0.60;;
31848;SDS011;18414;59.352;18.152;2023-06-04T06:01:40;0.53;;;0.53;;
31848;SDS011;18414;59.352;18.152;2023-06-04T06:04:05;1.27;;;0.70;;
31848;SDS011;18414;59.352;18.152;2023-06-04T06:06:30;2.33;;;0.60;;
31848;SDS011;18414;59.352;18.152;2023-06-04T06:08:56;1.40;;;0.50;;
31848;SDS011;18414;59.352;18.152;2023-06-04T06:11:23;0.67;;;0.57;;
31848;SDS011;18414;59.352;18.152;2023-06-04T06:13:48;1.90;;;0.60;;
31848;SDS011;18414;59.352;18.152;2023-06-04T06:16:13;0.60;;;0.60;;
31848;SDS011;18414;59.352;18.152;2023-06-04T06:18:39;0.50;;;0.50;;
31848;SDS011;18414;59.352;18.152;2023-06-04T06:21:05;1.27;;;0.50;;
31848;SDS011;18414;59.352;18.152;2023-06-04T06:23:30;1.07;;;0.50;;
31848;SDS011;18414;59.352;18.152;2023-06-04T06:25:56;0.63;;;0.50;;
31848;SDS011;18414;59.352;18.152;2023-06-04T06:28:22;0.60;;;0.50;;
31848;SDS011;18414;59.352;18.152;2023-06-04T06:30:47;0.90;;;0.57;;
31848;SDS011;18414;59.352;18.152;2023-06-04T06:33:13;1.00;;;0.50;;
31848;SDS011;18414;59.352;18.152;2023-06-04T06:35:38;0.50;;;0.50;;
31848;SDS011;18414;59.352;18.152;2023-06-04T06:38:03;2.00;;;0.60;;
31848;SDS011;18414;59.352;18.152;2023-06-04T06:40:29;0.40;;;0.40;;
31848;SDS011;18414;59.352;18.152;2023-06-04T06:42:55;0.40;;;0.40;;
31848;SDS011;18414;59.352;18.152;2023-06-04T06:45:20;0.57;;;0.50;;
31848;SDS011;18414;59.352;18.152;2023-06-04T06:47:46;1.20;;;0.50;;
31848;SDS011;18414;59.352;18.152;2023-06-04T06:50:11;0.40;;;0.40;;
31848;SDS011;18414;59.352;18.152;2023-06-04T06:52:37;1.37;;;0.60;;
31848;SDS011;18414;59.352;18.152;2023-06-04T06:55:06;0.50;;;0.40;;
31848;SDS011;18414;59.352;18.152;2023-06-04T06:57:32;1.70;;;0.60;;
31848;SDS011;18414;59.352;18.152;2023-06-04T06:59:58;0.50;;;0.50;;
31848;SDS011;18414;59.352;18.152;2023-06-04T07:02:23;0.60;;;0.40;;
31848;SDS011;18414;59.352;18.152;2023-06-04T07:04:49;0.47;;;0.40;;
31848;SDS011;18414;59.352;18.152;2023-06-04T07:07:15;0.50;;;0.50;;
31848;SDS011;18414;59.352;18.152;2023-06-04T07:09:41;2.00;;;0.50;;
31848;SDS011;18414;59.352;18.152;2023-06-04T07:12:06;0.50;;;0.50;;
31848;SDS011;18414;59.352;18.152;2023-06-04T07:14:32;0.40;;;0.40;;
31848;SDS011;18414;59.352;18.152;2023-06-04T07:16:57;0.43;;;0.43;;
31848;SDS011;18414;59.352;18.152;2023-06-04T07:19:23;2.77;;;0.40;;
31848;SDS011;18414;59.352;18.152;2023-06-04T07:21:49;0.40;;;0.40;;
31848;SDS011;18414;59.352;18.152;2023-06-04T07:24:15;0.50;;;0.50;;
31848;SDS011;18414;59.352;18.152;2023-06-04T07:26:40;0.50;;;0.50;;
31848;SDS011;18414;59.352;18.152;2023-06-04T07:29:06;0.97;;;0.50;;
31848;SDS011;18414;59.352;18.152;2023-06-04T07:31:32;0.60;;;0.60;;
31848;SDS011;18414;59.352;18.152;2023-06-04T07:33:57;0.70;;;0.40;;
31848;SDS011;18414;59.352;18.152;2023-06-04T07:36:22;0.40;;;0.40;;
31848;SDS011;18414;59.352;18.152;2023-06-04T07:38:48;0.30;;;0.30;;
31848;SDS011;18414;59.352;18.152;2023-06-04T07:41:13;0.90;;;0.60;;
31848;SDS011;18414;59.352;18.152;2023-06-04T07:43:38;0.70;;;0.53;;
31848;SDS011;18414;59.352;18.152;2023-06-04T07:46:04;0.40;;;0.40;;
31848;SDS011;18414;59.352;18.152;2023-06-04T07:48:30;0.50;;;0.40;;
31848;SDS011;18414;59.352;18.152;2023-06-04T07:50:58;0.50;;;0.40;;
31848;SDS011;18414;59.352;18.152;2023-06-04T07:53:25;0.47;;;0.40;;
31848;SDS011;18414;59.352;18.152;2023-06-04T07:55:51;0.40;;;0.40;;
31848;SDS011;18414;59.352;18.152;2023-06-04T07:58:17;0.90;;;0.40;;
31848;SDS011;18414;59.352;18.152;2023-06-04T08:00:42;0.60;;;0.50;;
31848;SDS011;18414;59.352;18.152;2023-06-04T08:03:08;0.40;;;0.40;;
31848;SDS011;18414;59.352;18.152;2023-06-04T08:05:34;0.30;;;0.30;;
31848;SDS011;18414;59.352;18.152;2023-06-04T08:07:59;0.50;;;0.50;;
31848;SDS011;18414;59.352;18.152;2023-06-04T08:10:25;0.50;;;0.50;;
31848;SDS011;18414;59.352;18.152;2023-06-04T08:12:50;0.77;;;0.50;;
31848;SDS011;18414;59.352;18.152;2023-06-04T08:15:16;0.70;;;0.57;;
31848;SDS011;18414;59.352;18.152;2023-06-04T08:17:41;0.67;;;0.53;;
31848;SDS011;18414;59.352;18.152;2023-06-04T08:20:06;0.33;;;0.33;;
31848;SDS011;18414;59.352;18.152;2023-06-04T08:22:33;1.07;;;0.50;;
31848;SDS011;18414;59.352;18.152;2023-06-04T08:24:59;0.50;;;0.40;;
31848;SDS011;18414;59.352;18.152;2023-06-04T08:27:25;1.60;;;0.40;;
31848;SDS011;18414;59.352;18.152;2023-06-04T08:29:50;0.40;;;0.40;;
31848;SDS011;18414;59.352;18.152;2023-06-04T08:32:17;0.40;;;0.40;;
31848;SDS011;18414;59.352;18.152;2023-06-04T08:34:42;0.40;;;0.40;;
31848;SDS011;18414;59.352;18.152;2023-06-04T08:37:08;0.47;;;0.40;;
31848;SDS011;18414;59.352;18.152;2023-06-04T08:39:33;0.40;;;0.40;;
31848;SDS011;18414;59.352;18.152;2023-06-04T08:42:03;0.80;;;0.50;;
31848;SDS011;18414;59.352;18.152;2023-06-04T08:44:30;0.50;;;0.40;;
31848;SDS011;18414;59.352;18.152;2023-06-04T08:46:57;0.50;;;0.50;;
31848;SDS011;18414;59.352;18.152;2023-06-04T08:49:28;0.50;;;0.50;;
31848;SDS011;18414;59.352;18.152;2023-06-04T08:51:59;0.70;;;0.50;;
31848;SDS011;18414;59.352;18.152;2023-06-04T08:54:24;0.40;;;0.40;;
31848;SDS011;18414;59.352;18.152;2023-06-04T08:56:51;1.07;;;0.63;;
31848;SDS011;18414;59.352;18.152;2023-06-04T08:59:17;0.80;;;0.57;;
31848;SDS011;18414;59.352;18.152;2023-06-04T09:01:43;0.73;;;0.60;;
31848;SDS011;18414;59.352;18.152;2023-06-04T09:04:10;0.47;;;0.47;;
31848;SDS011;18414;59.352;18.152;2023-06-04T09:06:35;2.53;;;0.53;;
31848;SDS011;18414;59.352;18.152;2023-06-04T09:09:03;0.67;;;0.40;;
31848;SDS011;18414;59.352;18.152;2023-06-04T09:11:35;0.40;;;0.30;;
31848;SDS011;18414;59.352;18.152;2023-06-04T09:14:07;0.40;;;0.40;;
31848;SDS011;18414;59.352;18.152;2023-06-04T09:16:49;1.17;;;0.60;;
31848;SDS011;18414;59.352;18.152;2023-06-04T09:19:17;0.50;;;0.50;;
31848;SDS011;18414;59.352;18.152;2023-06-04T09:21:46;1.30;;;0.50;;
31848;SDS011;18414;59.352;18.152;2023-06-04T09:24:18;0.40;;;0.40;;
31848;SDS011;18414;59.352;18.152;2023-06-04T09:26:45;0.60;;;0.60;;
31848;SDS011;18414;59.352;18.152;2023-06-04T09:29:11;0.50;;;0.50;;
31848;SDS011;18414;59.352;18.152;2023-06-04T09:31:37;1.13;;;0.70;;
31848;SDS011;18414;59.352;18.152;2023-06-04T09:34:04;0.50;;;0.50;;
31848;SDS011;18414;59.352;18.152;2023-06-04T09:36:30;0.83;;;0.70;;
31848;SDS011;18414;59.352;18.152;2023-06-04T09:38:56;0.50;;;0.50;;
31848;SDS011;18414;59.352;18.152;2023-06-04T09:41:21;0.60;;;0.60;;
31848;SDS011;18414;59.352;18.152;2023-06-04T09:43:47;3.30;;;0.50;;
31848;SDS011;18414;59.352;18.152;2023-06-04T09:46:13;0.80;;;0.50;;
31848;SDS011;18414;59.352;18.152;2023-06-04T09:48:40;0.40;;;0.40;;
31848;SDS011;18414;59.352;18.152;2023-06-04T09:51:06;0.50;;;0.40;;
31848;SDS011;18414;59.352;18.152;2023-06-04T09:53:53;0.53;;;0.50;;
31848;SDS011;18414;59.352;18.152;2023-06-04T09:56:19;0.40;;;0.30;;
31848;SDS011;18414;59.352;18.152;2023-06-04T09:58:46;0.50;;;0.40;;
31848;SDS011;18414;59.352;18.152;2023-06-04T10:01:14;1.67;;;0.60;;
31848;SDS011;18414;59.352;18.152;2023-06-04T10:03:40;0.50;;;0.50;;
31848;SDS011;18414;59.352;18.152;2023-06-04T10:06:09;0.47;;;0.47;;
31848;SDS011;18414;59.352;18.152;2023-06-04T10:08:37;0.40;;;0.40;;
31848;SDS011;18414;59.352;18.152;2023-06-04T10:11:05;0.87;;;0.43;;
31848;SDS011;18414;59.352;18.152;2023-06-04T10:13:35;0.50;;;0.50;;
31848;SDS011;18414;59.352;18.152;2023-06-04T10:16:17;0.50;;;0.50;;
31848;SDS011;18414;59.352;18.152;2023-06-04T10:18:43;0.70;;;0.60;;
31848;SDS011;18414;59.352;18.152;2023-06-04T10:21:08;0.60;;;0.50;;
31848;SDS011;18414;59.352;18.152;2023-06-04T10:23:34;2.45;;;0.65;;
31848;SDS011;18414;59.352;18.152;2023-06-04T10:26:00;2.10;;;0.57;;
31848;SDS011;18414;59.352;18.152;2023-06-04T10:28:26;0.50;;;0.50;;
31848;SDS011;18414;59.352;18.152;2023-06-04T10:30:53;0.43;;;0.43;;
31848;SDS011;18414;59.352;18.152;2023-06-04T10:33:19;0.50;;;0.50;;
31848;SDS011;18414;59.352;18.152;2023-06-04T10:35:50;0.53;;;0.53;;
31848;SDS011;18414;59.352;18.152;2023-06-04T10:38:18;0.60;;;0.60;;
31848;SDS011;18414;59.352;18.152;2023-06-04T10:40:46;3.83;;;0.60;;
31848;SDS011;18414;59.352;18.152;2023-06-04T10:43:12;0.93;;;0.60;;
31848;SDS011;18414;59.352;18.152;2023-06-04T10:45:38;1.40;;;0.50;;
31848;SDS011;18414;59.352;18.152;2023-06-04T10:48:05;1.50;;;0.60;;
31848;SDS011;18414;59.352;18.152;2023-06-04T10:50:32;1.90;;;0.60;;
31848;SDS011;18414;59.352;18.152;2023-06-04T10:52:59;0.47;;;0.47;;
31848;SDS011;18414;59.352;18.152;2023-06-04T10:55:27;2.43;;;0.67;;
31848;SDS011;18414;59.352;18.152;2023-06-04T10:58:00;0.67;;;0.60;;
31848;SDS011;18414;59.352;18.152;2023-06-04T11:00:39;0.60;;;0.60;;
31848;SDS011;18414;59.352;18.152;2023-06-04T11:03:06;0.55;;;0.55;;
31848;SDS011;18414;59.352;18.152;2023-06-04T11:05:36;0.50;;;0.50;;
31848;SDS011;18414;59.352;18.152;2023-06-04T11:08:03;0.60;;;0.60;;
31848;SDS011;18414;59.352;18.152;2023-06-04T11:10:33;0.60;;;0.60;;
31848;SDS011;18414;59.352;18.152;2023-06-04T11:13:00;0.80;;;0.80;;
31848;SDS011;18414;59.352;18.152;2023-06-04T11:15:25;0.60;;;0.60;;
31848;SDS011;18414;59.352;18.152;2023-06-04T11:17:54;0.50;;;0.50;;
31848;SDS011;18414;59.352;18.152;2023-06-04T11:20:23;0.60;;;0.60;;
31848;SDS011;18414;59.352;18.152;2023-06-04T11:22:52;0.70;;;0.70;;
31848;SDS011;18414;59.352;18.152;2023-06-04T11:25:18;0.70;;;0.50;;
31848;SDS011;18414;59.352;18.152;2023-06-04T11:27:44;0.60;;;0.60;;
31848;SDS011;18414;59.352;18.152;2023-06-04T11:30:10;0.60;;;0.60;;
31848;SDS011;18414;59.352;18.152;2023-06-04T11:32:37;0.75;;;0.50;;
31848;SDS011;18414;59.352;18.152;2023-06-04T11:35:03;0.60;;;0.50;;
31848;SDS011;18414;59.352;18.152;2023-06-04T11:37:30;0.90;;;0.70;;
31848;SDS011;18414;59.352;18.152;2023-06-04T11:39:57;0.82;;;0.70;;
31848;SDS011;18414;59.352;18.152;2023-06-04T11:42:22;2.72;;;0.50;;
31848;SDS011;18414;59.352;18.152;2023-06-04T11:44:48;0.65;;;0.52;;
31848;SDS011;18414;59.352;18.152;2023-06-04T11:47:13;0.50;;;0.50;;
31848;SDS011;18414;59.352;18.152;2023-06-04T11:49:40;0.60;;;0.60;;
31848;SDS011;18414;59.352;18.152;2023-06-04T11:52:08;0.63;;;0.63;;
31848;SDS011;18414;59.352;18.152;2023-06-04T11:54:33;1.95;;;0.70;;
31848;SDS011;18414;59.352;18.152;2023-06-04T11:57:03;0.60;;;0.60;;
31848;SDS011;18414;59.352;18.152;2023-06-04T11:59:29;0.70;;;0.70;;
31848;SDS011;18414;59.352;18.152;2023-06-04T12:01:55;0.88;;;0.60;;
31848;SDS011;18414;59.352;18.152;2023-06-04T12:04:22;1.55;;;0.60;;
31848;SDS011;18414;59.352;18.152;2023-06-04T12:06:54;2.38;;;0.80;;
31848;SDS011;18414;59.352;18.152;2023-06-04T12:09:22;1.00;;;0.60;;
31848;SDS011;18414;59.352;18.152;2023-06-04T12:11:48;0.50;;;0.50;;
31848;SDS011;18414;59.352;18.152;2023-06-04T12:14:17;0.50;;;0.50;;
31848;SDS011;18414;59.352;18.152;2023-06-04T12:16:53;0.55;;;0.50;;
31848;SDS011;18414;59.352;18.152;2023-06-04T12:19:26;0.70;;;0.70;;
31848;SDS011;18414;59.352;18.152;2023-06-04T12:22:01;0.80;;;0.68;;
31848;SDS011;18414;59.352;18.152;2023-06-04T12:24:28;0.80;;;0.65;;
31848;SDS011;18414;59.352;18.152;2023-06-04T12:27:04;0.70;;;0.70;;
31848;SDS011;18414;59.352;18.152;2023-06-04T12:29:31;1.15;;;0.50;;
31848;SDS011;18414;59.352;18.152;2023-06-04T12:34:30;0.90;;;0.60;;
31848;SDS011;18414;59.352;18.152;2023-06-04T12:36:56;1.00;;;0.70;;
31848;SDS011;18414;59.352;18.152;2023-06-04T12:39:21;1.05;;;0.50;;
31848;SDS011;18414;59.352;18.152;2023-06-04T12:41:47;1.25;;;0.70;;
31848;SDS011;18414;59.352;18.152;2023-06-04T12:44:12;0.60;;;0.60;;
31848;SDS011;18414;59.352;18.152;2023-06-04T12:46:37;0.77;;;0.70;;
31848;SDS011;18414;59.352;18.152;2023-06-04T12:49:03;1.08;;;0.60;;
31848;SDS011;18414;59.352;18.152;2023-06-04T12:51:28;0.55;;;0.55;;
31848;SDS011;18414;59.352;18.152;2023-06-04T12:53:53;0.40;;;0.40;;
31848;SDS011;18414;59.352;18.152;2023-06-04T12:56:19;0.70;;;0.70;;
31848;SDS011;18414;59.352;18.152;2023-06-04T12:58:44;0.60;;;0.60;;
31848;SDS011;18414;59.352;18.152;2023-06-04T13:01:09;1.05;;;0.68;;
31848;SDS011;18414;59.352;18.152;2023-06-04T13:03:36;0.77;;;0.60;;
31848;SDS011;18414;59.352;18.152;2023-06-04T13:06:02;0.45;;;0.40;;
31848;SDS011;18414;59.352;18.152;2023-06-04T13:08:28;0.70;;;0.60;;
31848;SDS011;18414;59.352;18.152;2023-06-04T13:10:53;0.50;;;0.50;;
31848;SDS011;18414;59.352;18.152;2023-06-04T13:13:20;0.45;;;0.40;;
31848;SDS011;18414;59.352;18.152;2023-06-04T13:15:45;0.68;;;0.68;;
31848;SDS011;18414;59.352;18.152;2023-06-04T13:18:11;0.70;;;0.60;;
31848;SDS011;18414;59.352;18.152;2023-06-04T13:20:37;0.50;;;0.50;;
31848;SDS011;18414;59.352;18.152;2023-06-04T13:23:04;1.35;;;0.57;;
31848;SDS011;18414;59.352;18.152;2023-06-04T13:25:30;0.68;;;0.57;;
31848;SDS011;18414;59.352;18.152;2023-06-04T13:28:02;1.05;;;0.65;;
31848;SDS011;18414;59.352;18.152;2023-06-04T13:30:27;1.25;;;0.47;;
31848;SDS011;18414;59.352;18.152;2023-06-04T13:32:53;0.95;;;0.50;;
31848;SDS011;18414;59.352;18.152;2023-06-04T13:35:18;0.50;;;0.50;;
31848;SDS011;18414;59.352;18.152;2023-06-04T13:37:44;0.73;;;0.60;;
31848;SDS011;18414;59.352;18.152;2023-06-04T13:40:09;0.75;;;0.50;;
31848;SDS011;18414;59.352;18.152;2023-06-04T13:42:35;0.90;;;0.50;;
31848;SDS011;18414;59.352;18.152;2023-06-04T13:45:00;0.73;;;0.50;;
31848;SDS011;18414;59.352;18.152;2023-06-04T13:47:26;0.57;;;0.55;;
31848;SDS011;18414;59.352;18.152;2023-06-04T13:49:52;0.55;;;0.55;;
31848;SDS011;18414;59.352;18.152;2023-06-04T13:52:17;0.57;;;0.57;;
31848;SDS011;18414;59.352;18.152;2023-06-04T13:54:43;0.68;;;0.68;;
31848;SDS011;18414;59.352;18.152;2023-06-04T13:57:08;3.25;;;0.80;;
31848;SDS011;18414;59.352;18.152;2023-06-04T13:59:36;0.60;;;0.60;;
31848;SDS011;18414;59.352;18.152;2023-06-04T14:02:02;0.90;;;0.50;;
31848;SDS011;18414;59.352;18.152;2023-06-04T14:04:27;0.60;;;0.60;;
31848;SDS011;18414;59.352;18.152;2023-06-04T14:06:53;1.95;;;0.50;;
31848;SDS011;18414;59.352;18.152;2023-06-04T14:09:18;0.63;;;0.50;;
31848;SDS011;18414;59.352;18.152;2023-06-04T14:11:44;1.15;;;0.50;;
31848;SDS011;18414;59.352;18.152;2023-06-04T14:14:14;0.50;;;0.50;;
31848;SDS011;18414;59.352;18.152;2023-06-04T14:16:39;0.80;;;0.70;;
31848;SDS011;18414;59.352;18.152;2023-06-04T14:19:05;0.60;;;0.60;;
31848;SDS011;18414;59.352;18.152;2023-06-04T14:21:30;1.63;;;0.40;;
31848;SDS011;18414;59.352;18.152;2023-06-04T14:23:56;0.55;;;0.55;;
31848;SDS011;18414;59.352;18.152;2023-06-04T14:26:21;1.17;;;0.88;;
31848;SDS011;18414;59.352;18.152;2023-06-04T14:28:47;0.60;;;0.60;;
31848;SDS011;18414;59.352;18.152;2023-06-04T14:31:12;0.70;;;0.60;;